Time;durP1;ratioP1;P1;durP2;ratioP2;P2;SDS_P1;SDS_P2;PMS_P1;PMS_P2;Temp;Humidity;BMP_temperature;BMP_pressure;BME280_temperature;BME280_humidity;BME280_pressure;Samples;Min_cycle;Max_cycle;Signal;HPM_P1;HPM_P2
2022/03/01 00:00:46;;;;;;;3.97;3.67;;;;;18.60;101765.00;;;;2054643;28;20690;-50
2022/03/01 00:01:46;;;;;;;3.87;3.50;;;;;18.60;101774.00;;;;2055548;28;20558;-51
2022/03/01 00:02:46;;;;;;;3.80;3.50;;;;;18.60;101767.00;;;;2054169;28;20839;-51
2022/03/01 00:03:47;;;;;;;4.20;3.90;;;;;18.60;101771.00;;;;2054567;28;20341;-55
2022/03/01 00:04:47;;;;;;;4.20;3.80;;;;;18.60;101778.00;;;;2054828;28;20736;-54
2022/03/01 00:05:47;;;;;;;4.50;4.10;;;;;18.60;101768.00;;;;2054808;28;20665;-50
2022/03/01 00:06:48;;;;;;;3.97;3.60;;;;;18.60;101767.00;;;;2054951;28;20927;-51
2022/03/01 00:07:48;;;;;;;3.97;3.67;;;;;18.60;101769.00;;;;2055072;28;20207;-51
2022/03/01 00:08:48;;;;;;;4.03;3.63;;;;;18.50;101765.00;;;;2051882;28;20232;-51
2022/03/01 00:09:49;;;;;;;4.53;4.10;;;;;18.60;101762.00;;;;2054521;28;20220;-51
2022/03/01 00:10:49;;;;;;;4.00;3.70;;;;;18.60;101769.00;;;;2054329;28;20223;-51
2022/03/01 00:11:49;;;;;;;4.03;3.63;;;;;18.60;101766.00;;;;2054406;28;20578;-51
2022/03/01 00:12:50;;;;;;;4.17;3.77;;;;;18.60;101767.00;;;;2056324;28;20648;-50
2022/03/01 00:13:50;;;;;;;3.90;3.60;;;;;18.60;101772.00;;;;2054824;28;20654;-50
2022/03/01 00:14:50;;;;;;;4.23;3.93;;;;;18.60;101765.00;;;;2055196;28;20294;-51
2022/03/01 00:15:51;;;;;;;4.20;3.80;;;;;18.60;101771.00;;;;2055195;28;20676;-51
2022/03/01 00:16:51;;;;;;;4.30;3.90;;;;;18.60;101770.00;;;;2055092;28;20791;-51
2022/03/01 00:17:51;;;;;;;4.00;3.70;;;;;18.60;101765.00;;;;2053655;28;20604;-51
2022/03/01 00:18:52;;;;;;;3.93;3.57;;;;;18.50;101771.00;;;;2059541;28;20217;-51
2022/03/01 00:19:52;;;;;;;4.30;3.90;;;;;18.60;101763.00;;;;2063097;28;20211;-51
2022/03/01 00:20:52;;;;;;;4.30;3.90;;;;;18.60;101762.00;;;;2062750;28;20245;-51
2022/03/01 00:21:53;;;;;;;3.70;3.40;;;;;18.60;101762.00;;;;2062963;28;20229;-51
2022/03/01 00:22:54;;;;;;;4.50;4.10;;;;;18.50;101763.00;;;;2062822;28;20274;-53
2022/03/01 00:23:54;;;;;;;4.10;3.80;;;;;18.50;101759.00;;;;2063132;28;20803;-54
2022/03/01 00:24:55;;;;;;;4.17;3.77;;;;;18.60;101762.00;;;;2063093;28;20214;-50
2022/03/01 00:25:55;;;;;;;3.70;3.37;;;;;18.60;101768.00;;;;2063173;28;20921;-51
2022/03/01 00:26:56;;;;;;;4.20;3.80;;;;;18.60;101766.00;;;;2063014;28;20634;-51
2022/03/01 00:27:56;;;;;;;3.77;3.47;;;;;18.60;101765.00;;;;2062795;28;20216;-51
2022/03/01 00:28:56;;;;;;;4.40;4.00;;;;;18.60;101763.00;;;;2062998;28;20667;-51
2022/03/01 00:29:57;;;;;;;4.23;3.93;;;;;18.60;101759.00;;;;2063159;28;20233;-51
2022/03/01 00:30:57;;;;;;;3.80;3.50;;;;;18.60;101765.00;;;;2062341;28;20277;-51
2022/03/01 00:31:57;;;;;;;4.20;3.80;;;;;18.60;101711.00;;;;2062781;28;20219;-51
2022/03/01 00:32:58;;;;;;;3.90;3.60;;;;;18.60;101762.00;;;;2062854;28;20749;-50
2022/03/01 00:33:58;;;;;;;3.80;3.50;;;;;18.50;101762.00;;;;2062105;28;20669;-50
2022/03/01 00:34:58;;;;;;;4.00;3.60;;;;;18.50;101730.00;;;;2062109;28;20752;-50
2022/03/01 00:35:59;;;;;;;4.53;4.13;;;;;18.60;101760.00;;;;2063075;28;20714;-50
2022/03/01 00:36:59;;;;;;;4.10;3.80;;;;;18.60;101760.00;;;;2062287;28;20643;-50
2022/03/01 00:37:59;;;;;;;4.00;3.70;;;;;18.50;101755.00;;;;2062386;28;20229;-51
2022/03/01 00:39:00;;;;;;;3.97;3.67;;;;;18.60;101762.00;;;;2062877;28;20218;-51
2022/03/01 00:40:00;;;;;;;3.83;3.53;;;;;18.50;101753.00;;;;2062888;28;20225;-51
2022/03/01 00:41:01;;;;;;;3.73;3.33;;;;;18.50;101755.00;;;;2062469;28;20210;-52
2022/03/01 00:42:01;;;;;;;5.83;3.90;;;;;18.50;101750.00;;;;2059820;28;20265;-51
2022/03/01 00:43:01;;;;;;;3.77;3.47;;;;;18.60;101752.00;;;;2060275;28;20218;-51
2022/03/01 00:44:02;;;;;;;4.10;3.80;;;;;18.50;101746.00;;;;2062817;28;20214;-51
2022/03/01 00:45:02;;;;;;;4.20;3.40;;;;;18.50;101749.00;;;;2062657;28;20217;-50
2022/03/01 00:46:03;;;;;;;3.73;3.43;;;;;18.50;101748.00;;;;2062975;28;20687;-51
2022/03/01 00:47:03;;;;;;;4.50;4.10;;;;;18.50;101759.00;;;;2056316;28;20230;-50
2022/03/01 00:48:04;;;;;;;3.97;3.57;;;;;18.50;101756.00;;;;2054830;28;20226;-50
2022/03/01 00:49:04;;;;;;;4.10;3.70;;;;;18.50;101759.00;;;;2054761;28;20299;-51
2022/03/01 00:50:05;;;;;;;3.70;3.40;;;;;18.50;101749.00;;;;2054864;28;20212;-51
2022/03/01 00:51:06;;;;;;;4.30;3.90;;;;;18.50;101752.00;;;;2053557;28;20606;-51
2022/03/01 00:52:06;;;;;;;3.73;3.43;;;;;18.50;101757.00;;;;2054070;28;20506;-51
2022/03/01 00:53:06;;;;;;;3.90;3.57;;;;;18.50;101750.00;;;;2054831;28;20647;-51
2022/03/01 00:54:07;;;;;;;4.40;4.10;;;;;18.50;101752.00;;;;2054355;28;20212;-51
2022/03/01 00:55:07;;;;;;;3.60;3.30;;;;;18.50;101747.00;;;;2054051;28;20263;-51
2022/03/01 00:56:08;;;;;;;4.20;3.80;;;;;18.50;101741.00;;;;2053233;28;20287;-51
2022/03/01 00:57:08;;;;;;;4.03;3.73;;;;;18.50;101749.00;;;;2054905;28;20242;-50
2022/03/01 00:58:08;;;;;;;4.07;3.77;;;;;18.50;101752.00;;;;2056849;28;20207;-51
2022/03/01 00:59:09;;;;;;;4.50;4.10;;;;;18.50;101747.00;;;;2055002;28;20215;-51
2022/03/01 01:00:09;;;;;;;4.07;3.70;;;;;18.50;101747.00;;;;2048373;28;20303;-51
2022/03/01 01:01:10;;;;;;;3.90;3.60;;;;;18.50;101742.00;;;;2054260;28;20218;-51
2022/03/01 01:02:10;;;;;;;3.83;3.53;;;;;18.50;101742.00;;;;2054794;28;20216;-50
2022/03/01 01:03:10;;;;;;;3.80;3.50;;;;;18.50;101744.00;;;;2054913;28;20211;-50
2022/03/01 01:04:11;;;;;;;4.07;3.67;;;;;18.50;101746.00;;;;2048981;28;20219;-50
2022/03/01 01:05:11;;;;;;;4.10;3.80;;;;;18.50;101742.00;;;;2054312;28;20219;-51
2022/03/01 01:06:11;;;;;;;3.80;3.50;;;;;18.50;101750.00;;;;2054982;28;20208;-51
2022/03/01 01:07:12;;;;;;;3.93;3.63;;;;;18.50;101747.00;;;;2054028;28;20224;-51
2022/03/01 01:08:12;;;;;;;3.97;3.60;;;;;18.50;101738.00;;;;2054251;28;20207;-51
2022/03/01 01:09:14;;;;;;;4.00;3.70;;;;;18.50;101743.00;;;;2053626;28;20244;-50
2022/03/01 01:10:14;;;;;;;3.65;3.35;;;;;18.50;101742.00;;;;2054583;28;20227;-51
2022/03/01 01:11:14;;;;;;;4.00;3.70;;;;;18.50;101747.00;;;;2054350;28;20231;-51
2022/03/01 01:12:15;;;;;;;3.63;3.33;;;;;18.50;101752.00;;;;2054813;28;20211;-51
2022/03/01 01:13:15;;;;;;;3.83;3.53;;;;;18.60;101745.00;;;;2054318;28;20307;-51
2022/03/01 01:14:15;;;;;;;4.07;3.77;;;;;18.50;101745.00;;;;2059355;28;20227;-51
2022/03/01 01:15:17;;;;;;;3.60;3.30;;;;;18.50;101739.00;;;;2062838;28;20210;-51
2022/03/01 01:16:17;;;;;;;3.83;3.53;;;;;18.50;101735.00;;;;2062690;28;20602;-51
2022/03/01 01:17:17;;;;;;;4.27;3.80;;;;;18.50;101740.00;;;;2059916;28;20222;-51
2022/03/01 01:18:18;;;;;;;4.03;3.73;;;;;18.50;101745.00;;;;2062895;28;20268;-50
2022/03/01 01:19:18;;;;;;;4.37;3.97;;;;;18.50;101746.00;;;;2062935;28;20246;-51
2022/03/01 01:20:18;;;;;;;3.83;3.53;;;;;18.50;101749.00;;;;2059503;28;20230;-51
2022/03/01 01:21:19;;;;;;;3.77;3.47;;;;;18.50;101748.00;;;;2062173;28;20222;-51
2022/03/01 01:23:38;;;;;;;3.72;3.42;;;;;18.50;101749.00;;;;2062495;28;20672;-51
2022/03/01 01:24:38;;;;;;;4.00;3.20;;;;;18.50;101748.00;;;;2062531;28;20293;-51
2022/03/01 01:25:39;;;;;;;4.10;3.80;;;;;18.50;101745.00;;;;2062117;28;20273;-51
2022/03/01 01:26:39;;;;;;;4.00;3.70;;;;;18.50;101738.00;;;;2062017;28;20271;-51
2022/03/01 01:27:41;;;;;;;4.20;3.90;;;;;18.50;101743.00;;;;2078391;28;20247;-50
2022/03/01 01:28:41;;;;;;;4.00;3.70;;;;;18.50;101744.00;;;;2070013;28;21093;-51
2022/03/01 01:29:41;;;;;;;3.83;3.53;;;;;18.50;101740.00;;;;2056666;28;20212;-51
2022/03/01 01:30:42;;;;;;;3.80;3.50;;;;;18.50;101746.00;;;;2054345;28;20218;-50
2022/03/01 01:31:42;;;;;;;3.90;3.60;;;;;18.50;101743.00;;;;2054749;28;20221;-50
2022/03/01 01:32:43;;;;;;;4.13;3.77;;;;;18.50;101738.00;;;;2059035;28;20297;-51
2022/03/01 01:33:43;;;;;;;3.80;3.50;;;;;18.50;101747.00;;;;2062763;28;20207;-51
2022/03/01 01:34:43;;;;;;;3.50;3.30;;;;;18.50;101731.00;;;;2062842;28;20214;-51
2022/03/01 01:35:44;;;;;;;3.40;3.20;;;;;18.50;101741.00;;;;2062714;28;20695;-49
2022/03/01 01:36:44;;;;;;;4.57;4.00;;;;;18.50;101745.00;;;;2062585;28;20789;-50
2022/03/01 01:37:45;;;;;;;3.70;3.40;;;;;18.50;101741.00;;;;2061304;28;20707;-51
2022/03/01 01:38:45;;;;;;;3.93;3.63;;;;;18.50;101750.00;;;;2054716;28;20719;-51
2022/03/01 01:39:45;;;;;;;4.30;3.90;;;;;18.50;101744.00;;;;2054125;28;20703;-51
2022/03/01 01:40:46;;;;;;;3.60;3.30;;;;;18.50;101742.00;;;;2053619;28;20708;-51
2022/03/01 01:41:46;;;;;;;3.97;3.57;;;;;18.50;101740.00;;;;2054703;28;20242;-51
2022/03/01 01:42:46;;;;;;;3.50;3.20;;;;;18.50;101737.00;;;;2054622;28;20234;-50
2022/03/01 01:43:47;;;;;;;4.10;3.70;;;;;18.50;101735.00;;;;2054486;28;20258;-51
2022/03/01 01:44:47;;;;;;;4.03;3.70;;;;;18.50;101740.00;;;;2054568;28;20218;-51
2022/03/01 01:45:47;;;;;;;3.70;3.40;;;;;18.50;101734.00;;;;2054681;28;20588;-51
2022/03/01 01:46:48;;;;;;;3.90;3.50;;;;;18.50;101738.00;;;;2052068;28;20890;-52
2022/03/01 01:47:48;;;;;;;3.53;3.30;;;;;18.50;101745.00;;;;2054042;28;20681;-51
2022/03/01 01:48:49;;;;;;;4.03;3.70;;;;;18.50;101744.00;;;;2054428;28;20564;-50
2022/03/01 01:49:49;;;;;;;3.80;3.50;;;;;18.50;101743.00;;;;2054823;28;20219;-50
2022/03/01 01:50:49;;;;;;;3.83;3.50;;;;;18.50;101736.00;;;;2054362;28;20225;-51
2022/03/01 01:51:50;;;;;;;3.80;3.57;;;;;18.50;101740.00;;;;2054800;28;20242;-51
2022/03/01 01:52:51;;;;;;;3.43;3.13;;;;;18.50;101738.00;;;;2054590;28;20219;-51
2022/03/01 01:53:52;;;;;;;5.22;3.60;;;;;18.50;101746.00;;;;2069942;28;20245;-51
2022/03/01 01:54:54;;;;;;;3.50;3.20;;;;;18.50;101741.00;;;;2063502;28;20560;-51
2022/03/01 01:55:54;;;;;;;4.00;3.70;;;;;18.50;101737.00;;;;2055747;28;20242;-50
2022/03/01 01:56:54;;;;;;;3.43;3.23;;;;;18.50;101751.00;;;;2056355;28;20231;-51
2022/03/01 01:57:56;;;;;;;4.07;3.67;;;;;18.50;101734.00;;;;2057577;28;20215;-50
2022/03/01 01:58:56;;;;;;;3.65;3.35;;;;;18.50;101729.00;;;;2056248;28;20684;-51
2022/03/01 01:59:56;;;;;;;3.90;3.57;;;;;18.50;101734.00;;;;2056254;28;20298;-51
2022/03/01 02:00:57;;;;;;;4.27;3.87;;;;;18.50;101727.00;;;;2055818;28;20219;-51
2022/03/01 02:01:57;;;;;;;3.97;3.67;;;;;18.50;101731.00;;;;2064122;28;20245;-51
2022/03/01 02:02:58;;;;;;;3.63;3.33;;;;;18.50;101726.00;;;;2064183;28;20217;-51
2022/03/01 02:03:59;;;;;;;3.83;3.53;;;;;18.50;101729.00;;;;2064132;28;20245;-51
2022/03/01 02:05:00;;;;;;;4.10;3.70;;;;;18.50;101735.00;;;;2060774;28;20680;-51
2022/03/01 02:06:01;;;;;;;3.80;3.50;;;;;18.50;101727.00;;;;2060538;28;20450;-51
2022/03/01 02:07:01;;;;;;;3.70;3.40;;;;;18.50;101729.00;;;;2062328;28;20309;-51
2022/03/01 02:08:01;;;;;;;3.77;3.47;;;;;18.50;101724.00;;;;2055908;28;20462;-51
2022/03/01 02:09:02;;;;;;;3.70;3.40;;;;;18.50;101720.00;;;;2062067;28;20354;-50
2022/03/01 02:10:03;;;;;;;3.33;3.03;;;;;18.50;101716.00;;;;2064146;28;20219;-51
2022/03/01 02:11:03;;;;;;;3.85;3.55;;;;;18.50;101714.00;;;;2063603;28;20225;-51
2022/03/01 02:12:04;;;;;;;3.90;3.50;;;;;18.50;101718.00;;;;2064122;28;20214;-51
2022/03/01 02:13:05;;;;;;;4.20;3.80;;;;;18.50;101713.00;;;;2053866;28;20395;-51
2022/03/01 02:14:05;;;;;;;4.10;3.60;;;;;18.50;101709.00;;;;2056110;28;21232;-51
2022/03/01 02:15:05;;;;;;;3.80;3.50;;;;;18.50;101711.00;;;;2056218;28;20665;-51
2022/03/01 02:16:06;;;;;;;3.00;2.80;;;;;18.50;101718.00;;;;2056132;28;20274;-50
2022/03/01 02:17:08;;;;;;;3.60;3.30;;;;;18.50;101703.00;;;;2055615;28;20792;-50
2022/03/01 02:18:08;;;;;;;4.05;3.75;;;;;18.50;101706.00;;;;2055134;28;20211;-52
2022/03/01 02:19:11;;;;;;;4.07;3.77;;;;;18.50;101706.00;;;;2056035;28;20723;-51
2022/03/01 02:20:22;;;;;;;3.83;3.53;;;;;18.50;101706.00;;;;2056094;28;20234;-50
2022/03/01 02:21:22;;;;;;;4.15;3.75;;;;;18.40;101699.00;;;;2060653;28;20215;-51
2022/03/01 02:22:22;;;;;;;3.70;3.40;;;;;18.50;101694.00;;;;2063797;28;20287;-51
2022/03/01 02:23:23;;;;;;;4.03;3.63;;;;;18.40;101699.00;;;;2064134;28;20218;-51
2022/03/01 02:24:28;;;;;;;3.90;3.60;;;;;18.40;101699.00;;;;2062284;28;20233;-51
2022/03/01 02:25:28;;;;;;;3.50;3.20;;;;;18.50;101697.00;;;;2064215;28;20288;-51
2022/03/01 02:26:28;;;;;;;3.73;3.43;;;;;18.50;101700.00;;;;2061739;28;20337;-51
2022/03/01 02:27:29;;;;;;;3.90;3.60;;;;;18.50;101699.00;;;;2056074;28;20226;-51
2022/03/01 02:28:29;;;;;;;3.37;3.07;;;;;18.50;101699.00;;;;2055825;28;20211;-51
2022/03/01 02:29:30;;;;;;;4.10;3.80;;;;;18.50;101691.00;;;;2056026;28;20250;-51
2022/03/01 02:30:31;;;;;;;3.60;3.33;;;;;18.50;101705.00;;;;2055690;28;20465;-51
2022/03/01 02:31:31;;;;;;;4.07;3.78;;;;;18.50;101701.00;;;;2056049;28;20273;-51
2022/03/01 02:32:32;;;;;;;3.80;3.50;;;;;18.50;101699.00;;;;2055792;28;20357;-51
2022/03/01 02:33:32;;;;;;;3.93;3.63;;;;;18.50;101699.00;;;;2056099;28;20309;-51
2022/03/01 02:34:33;;;;;;;3.80;3.50;;;;;18.40;101702.00;;;;2056019;28;20215;-51
2022/03/01 02:35:33;;;;;;;4.17;3.77;;;;;18.50;101701.00;;;;2058699;28;20222;-51
2022/03/01 02:36:34;;;;;;;4.13;3.83;;;;;18.40;101697.00;;;;2063865;28;20594;-51
2022/03/01 02:37:34;;;;;;;4.00;3.70;;;;;18.40;101696.00;;;;2063812;28;20215;-50
2022/03/01 02:38:34;;;;;;;4.50;4.10;;;;;18.50;101693.00;;;;2058526;28;20270;-51
2022/03/01 02:39:35;;;;;;;3.77;3.47;;;;;18.50;101700.00;;;;2056097;28;20215;-51
2022/03/01 02:40:35;;;;;;;3.97;3.67;;;;;18.40;101689.00;;;;2055386;28;20700;-51
2022/03/01 02:41:39;;;;;;;3.73;3.47;;;;;18.40;101691.00;;;;2063154;28;20699;-50
2022/03/01 02:42:42;;;;;;;3.72;3.42;;;;;18.40;101693.00;;;;2055821;28;20246;-51
2022/03/01 02:43:42;;;;;;;4.18;3.80;;;;;18.40;101686.00;;;;2062532;28;20214;-51
2022/03/01 02:44:43;;;;;;;4.00;3.70;;;;;18.50;101684.00;;;;2063865;28;20218;-51
2022/03/01 02:45:43;;;;;;;4.00;3.70;;;;;18.40;101693.00;;;;2064009;28;20222;-51
2022/03/01 02:46:43;;;;;;;3.93;3.63;;;;;18.40;101685.00;;;;2063983;28;20221;-51
2022/03/01 02:47:44;;;;;;;3.80;3.50;;;;;18.50;101689.00;;;;2057226;28;20427;-51
2022/03/01 02:48:44;;;;;;;3.80;3.50;;;;;18.40;101687.00;;;;2056094;28;20218;-51
2022/03/01 02:49:45;;;;;;;4.27;3.97;;;;;18.50;101694.00;;;;2060909;28;20691;-51
2022/03/01 02:50:45;;;;;;;3.80;3.50;;;;;18.40;101699.00;;;;2063251;28;20214;-51
2022/03/01 02:51:45;;;;;;;3.60;3.30;;;;;18.40;101690.00;;;;2063047;28;20219;-51
2022/03/01 02:52:46;;;;;;;4.30;3.90;;;;;18.50;101690.00;;;;2063502;28;20211;-51
2022/03/01 02:53:46;;;;;;;3.83;3.53;;;;;18.40;101687.00;;;;2063914;28;20679;-51
2022/03/01 02:54:46;;;;;;;3.80;3.50;;;;;18.40;101691.00;;;;2063824;28;20215;-50
2022/03/01 02:55:47;;;;;;;3.73;3.43;;;;;18.40;101690.00;;;;2063911;28;20214;-51
2022/03/01 02:56:47;;;;;;;4.07;3.77;;;;;18.40;101699.00;;;;2063852;28;20207;-51
2022/03/01 02:57:47;;;;;;;4.20;3.80;;;;;18.40;101694.00;;;;2062803;28;20246;-50
2022/03/01 02:58:48;;;;;;;3.90;3.60;;;;;18.40;101695.00;;;;2057317;28;20224;-51
2022/03/01 02:59:48;;;;;;;3.93;3.37;;;;;18.40;101701.00;;;;2062347;28;20215;-51
2022/03/01 03:00:48;;;;;;;3.57;3.27;;;;;18.20;101702.00;;;;2062711;28;20234;-51
2022/03/01 03:01:49;;;;;;;4.13;3.83;;;;;18.40;101700.00;;;;2061315;28;20265;-50
2022/03/01 03:02:49;;;;;;;3.23;3.03;;;;;18.40;101700.00;;;;2061991;28;20577;-52
2022/03/01 03:03:49;;;;;;;4.20;3.80;;;;;18.40;101705.00;;;;2055868;28;20227;-51
2022/03/01 03:04:50;;;;;;;4.10;3.80;;;;;18.50;101709.00;;;;2055821;28;20220;-51
2022/03/01 03:05:50;;;;;;;3.60;3.30;;;;;18.40;101703.00;;;;2062240;28;20298;-51
2022/03/01 03:06:50;;;;;;;3.97;3.67;;;;;18.40;101709.00;;;;2062289;28;20230;-51
2022/03/01 03:07:51;;;;;;;3.37;3.17;;;;;18.40;101709.00;;;;2058294;28;20215;-51
2022/03/01 03:08:51;;;;;;;3.60;3.30;;;;;18.40;101708.00;;;;2057561;28;20696;-51
2022/03/01 03:09:51;;;;;;;4.27;3.87;;;;;18.40;101702.00;;;;2055840;28;20723;-51
2022/03/01 03:10:52;;;;;;;3.67;3.37;;;;;18.40;101708.00;;;;2055354;28;20696;-51
2022/03/01 03:11:52;;;;;;;3.97;3.57;;;;;18.40;101708.00;;;;2056232;28;20227;-51
2022/03/01 03:12:53;;;;;;;3.60;3.30;;;;;18.40;101712.00;;;;2054843;28;20223;-51
2022/03/01 03:13:53;;;;;;;3.57;3.27;;;;;18.40;101710.00;;;;2059157;28;20767;-50
2022/03/01 03:14:54;;;;;;;3.93;3.63;;;;;18.40;101705.00;;;;2055395;28;20841;-50
2022/03/01 03:15:54;;;;;;;3.90;3.60;;;;;18.40;101708.00;;;;2061080;28;20222;-50
2022/03/01 03:16:54;;;;;;;3.93;3.53;;;;;18.40;101705.00;;;;2061420;28;20203;-51
2022/03/01 03:17:55;;;;;;;4.17;3.87;;;;;18.40;101701.00;;;;2054712;28;20267;-51
2022/03/01 03:18:55;;;;;;;3.23;3.03;;;;;18.40;101703.00;;;;2055748;28;20239;-51
2022/03/01 03:19:55;;;;;;;3.47;3.17;;;;;18.40;101694.00;;;;2055754;28;20215;-50
2022/03/01 03:20:56;;;;;;;3.63;3.33;;;;;18.40;101708.00;;;;2055106;28;20226;-51
2022/03/01 03:21:56;;;;;;;3.67;3.37;;;;;18.40;101696.00;;;;2055779;28;20270;-50
2022/03/01 03:22:56;;;;;;;3.70;3.40;;;;;18.40;101696.00;;;;2055507;28;20751;-50
2022/03/01 03:23:57;;;;;;;3.33;3.13;;;;;18.40;101686.00;;;;2062958;28;20211;-50
2022/03/01 03:24:57;;;;;;;3.90;3.60;;;;;18.40;101698.00;;;;2056762;28;20230;-50
2022/03/01 03:25:57;;;;;;;3.77;3.47;;;;;18.40;101702.00;;;;2054516;28;20700;-51
2022/03/01 03:26:58;;;;;;;4.07;3.70;;;;;18.40;101694.00;;;;2062801;28;20219;-51
2022/03/01 03:27:59;;;;;;;3.67;3.37;;;;;18.40;101670.00;;;;2063650;28;20206;-50
2022/03/01 03:28:59;;;;;;;3.50;3.20;;;;;18.40;101688.00;;;;2063852;28;20710;-50
2022/03/01 03:29:59;;;;;;;3.93;3.63;;;;;18.40;101688.00;;;;2063748;28;20466;-50
2022/03/01 03:31:00;;;;;;;3.70;3.40;;;;;18.40;101692.00;;;;2063017;28;20214;-51
2022/03/01 03:32:00;;;;;;;3.93;3.53;;;;;18.40;101686.00;;;;2063379;28;20210;-51
2022/03/01 03:33:00;;;;;;;3.73;3.43;;;;;18.40;101687.00;;;;2061876;28;20265;-51
2022/03/01 03:34:01;;;;;;;3.73;3.43;;;;;18.40;101686.00;;;;2057989;28;20290;-51
2022/03/01 03:35:01;;;;;;;3.73;3.43;;;;;18.40;101683.00;;;;2063545;28;20208;-50
2022/03/01 03:36:03;;;;;;;3.80;3.40;;;;;18.40;101682.00;;;;2061823;28;20210;-51
2022/03/01 03:37:03;;;;;;;3.50;3.20;;;;;18.40;101681.00;;;;2060013;28;20631;-51
2022/03/01 03:38:04;;;;;;;3.90;3.60;;;;;18.40;101678.00;;;;2056746;28;20215;-51
2022/03/01 03:39:05;;;;;;;3.20;3.00;;;;;18.40;101681.00;;;;2054942;28;20625;-50
2022/03/01 03:40:08;;;;;;;3.42;3.15;;;;;18.40;101681.00;;;;2055553;28;20207;-50
2022/03/01 03:41:09;;;;;;;3.35;3.05;;;;;18.40;101678.00;;;;2055156;28;20298;-50
2022/03/01 03:42:09;;;;;;;4.10;3.80;;;;;18.40;101681.00;;;;2055412;28;20688;-51
2022/03/01 03:43:09;;;;;;;3.57;3.27;;;;;18.40;101675.00;;;;2055200;28;20222;-51
2022/03/01 03:44:10;;;;;;;4.07;3.60;;;;;18.40;101670.00;;;;2063559;28;20230;-50
2022/03/01 03:45:10;;;;;;;3.67;3.37;;;;;18.40;101669.00;;;;2063369;28;20222;-50
2022/03/01 03:46:11;;;;;;;3.43;3.20;;;;;18.40;101672.00;;;;2057274;28;20224;-51
2022/03/01 03:47:11;;;;;;;3.60;3.30;;;;;18.40;101677.00;;;;2055357;28;20227;-51
2022/03/01 03:48:12;;;;;;;4.20;3.80;;;;;18.40;101676.00;;;;2055331;28;20265;-51
2022/03/01 03:49:12;;;;;;;4.43;3.90;;;;;18.40;101675.00;;;;2055476;28;20263;-51
2022/03/01 03:50:12;;;;;;;4.20;3.80;;;;;18.40;101668.00;;;;2055194;28;20242;-51
2022/03/01 03:51:13;;;;;;;3.73;3.43;;;;;18.40;101664.00;;;;2054958;28;20723;-51
2022/03/01 03:52:13;;;;;;;3.90;3.60;;;;;18.40;101665.00;;;;2059570;28;20225;-51
2022/03/01 03:53:13;;;;;;;3.30;3.00;;;;;18.40;101665.00;;;;2063139;28;20218;-50
2022/03/01 03:54:13;;;;;;;3.90;3.60;;;;;18.40;101668.00;;;;2061274;28;20225;-52
2022/03/01 03:55:14;;;;;;;3.73;3.43;;;;;18.40;101668.00;;;;2055488;28;20307;-51
2022/03/01 03:56:14;;;;;;;3.33;3.13;;;;;18.40;101670.00;;;;2054444;28;20223;-50
2022/03/01 03:57:15;;;;;;;4.30;3.87;;;;;18.40;101669.00;;;;2055450;28;20339;-51
2022/03/01 03:58:15;;;;;;;3.47;3.17;;;;;18.40;101669.00;;;;2058269;28;20711;-51
2022/03/01 03:59:15;;;;;;;3.90;3.60;;;;;18.40;101675.00;;;;2055538;28;20718;-51
2022/03/01 04:00:17;;;;;;;3.97;3.67;;;;;18.40;101665.00;;;;2062235;28;20693;-50
2022/03/01 04:01:17;;;;;;;4.15;3.78;;;;;18.40;101670.00;;;;2062475;28;20226;-51
2022/03/01 04:02:17;;;;;;;3.80;3.50;;;;;18.40;101674.00;;;;2062673;28;20231;-50
2022/03/01 04:03:18;;;;;;;3.60;3.30;;;;;18.40;101671.00;;;;2063137;28;20325;-50
2022/03/01 04:04:18;;;;;;;4.07;3.67;;;;;18.40;101669.00;;;;2062335;28;20233;-50
2022/03/01 04:05:18;;;;;;;3.87;3.57;;;;;18.40;101670.00;;;;2062079;28;20601;-51
2022/03/01 04:06:19;;;;;;;3.67;3.37;;;;;18.40;101665.00;;;;2061793;28;20344;-51
2022/03/01 04:07:19;;;;;;;3.77;3.47;;;;;18.40;101667.00;;;;2057791;28;20286;-51
2022/03/01 04:08:19;;;;;;;3.70;3.40;;;;;18.40;101670.00;;;;2063121;28;20583;-50
2022/03/01 04:09:20;;;;;;;3.20;3.00;;;;;18.40;101672.00;;;;2055585;28;20602;-51
2022/03/01 04:10:20;;;;;;;3.70;3.40;;;;;18.40;101670.00;;;;2055003;28;21068;-51
2022/03/01 04:11:20;;;;;;;3.67;3.37;;;;;18.40;101677.00;;;;2057274;28;20251;-51
2022/03/01 04:12:21;;;;;;;3.60;3.30;;;;;18.40;101669.00;;;;2060249;28;20227;-51
2022/03/01 04:13:21;;;;;;;3.50;3.27;;;;;18.40;101668.00;;;;2054230;28;20227;-51
2022/03/01 04:14:21;;;;;;;3.53;3.23;;;;;18.40;101674.00;;;;2054458;28;20318;-51
2022/03/01 04:15:22;;;;;;;3.40;3.20;;;;;18.40;101665.00;;;;2055282;28;20234;-51
2022/03/01 04:16:22;;;;;;;3.97;3.67;;;;;18.40;101674.00;;;;2055380;28;20223;-51
2022/03/01 04:17:23;;;;;;;3.90;3.60;;;;;18.30;101673.00;;;;2054600;28;20219;-50
2022/03/01 04:18:23;;;;;;;3.70;3.40;;;;;18.40;101661.00;;;;2054566;28;20219;-51
2022/03/01 04:19:23;;;;;;;3.60;3.30;;;;;18.30;101660.00;;;;2055294;28;20235;-51
2022/03/01 04:20:24;;;;;;;3.40;3.10;;;;;18.40;101665.00;;;;2054414;28;20298;-51
2022/03/01 04:21:24;;;;;;;3.50;3.20;;;;;18.30;101662.00;;;;2052297;28;20223;-51
2022/03/01 04:22:24;;;;;;;3.87;3.57;;;;;18.30;101668.00;;;;2054964;28;20281;-51
2022/03/01 04:23:25;;;;;;;3.70;3.40;;;;;18.40;101669.00;;;;2054999;28;20216;-50
2022/03/01 04:24:25;;;;;;;3.87;3.57;;;;;18.40;101669.00;;;;2055018;28;20302;-51
2022/03/01 04:25:26;;;;;;;3.70;3.40;;;;;18.30;101666.00;;;;2055103;28;20581;-51
2022/03/01 04:26:27;;;;;;;4.32;3.92;;;;;18.30;101667.00;;;;2054894;28;20223;-50
2022/03/01 04:27:27;;;;;;;4.03;3.73;;;;;18.30;101666.00;;;;2055161;28;20323;-50
2022/03/01 04:28:27;;;;;;;3.73;3.43;;;;;18.30;101676.00;;;;2055066;28;20273;-51
2022/03/01 04:29:28;;;;;;;3.90;3.60;;;;;18.30;101675.00;;;;2054883;28;20215;-52
2022/03/01 04:30:28;;;;;;;3.47;3.23;;;;;18.30;101667.00;;;;2053970;28;20211;-51
2022/03/01 04:31:29;;;;;;;4.20;3.90;;;;;18.40;101671.00;;;;2052832;28;20216;-52
2022/03/01 04:32:29;;;;;;;3.67;3.38;;;;;18.30;101672.00;;;;2055217;28;20211;-51
2022/03/01 04:33:30;;;;;;;3.53;3.27;;;;;18.30;101668.00;;;;2054498;28;20239;-51
2022/03/01 04:34:30;;;;;;;3.80;3.50;;;;;18.30;101673.00;;;;2054995;28;20215;-51
2022/03/01 04:35:31;;;;;;;3.40;3.17;;;;;18.40;101675.00;;;;2055010;28;20668;-51
2022/03/01 04:36:31;;;;;;;3.83;3.53;;;;;18.30;101673.00;;;;2055023;28;20207;-51
2022/03/01 04:37:31;;;;;;;3.13;2.90;;;;;18.30;101672.00;;;;2055222;28;20211;-52
2022/03/01 04:38:33;;;;;;;3.40;3.20;;;;;18.40;101669.00;;;;2055121;28;20218;-50
2022/03/01 04:39:33;;;;;;;3.40;3.10;;;;;18.30;101672.00;;;;2059641;28;20318;-51
2022/03/01 04:40:34;;;;;;;3.37;3.07;;;;;18.30;101673.00;;;;2062684;28;20777;-51
2022/03/01 04:41:34;;;;;;;3.73;3.43;;;;;18.20;101673.00;;;;2063000;28;20306;-51
2022/03/01 04:42:35;;;;;;;3.60;3.30;;;;;18.30;101668.00;;;;2063069;28;20454;-51
2022/03/01 04:43:35;;;;;;;4.10;3.80;;;;;18.30;101670.00;;;;2062750;28;20207;-51
2022/03/01 04:44:36;;;;;;;4.03;3.73;;;;;18.30;101676.00;;;;2078532;28;20206;-50
2022/03/01 04:45:36;;;;;;;4.27;3.87;;;;;18.30;101678.00;;;;2078456;28;20467;-51
2022/03/01 04:46:37;;;;;;;4.03;3.63;;;;;18.30;101681.00;;;;2059692;28;20215;-51
2022/03/01 04:47:37;;;;;;;3.73;3.43;;;;;18.30;101684.00;;;;2054145;28;21022;-51
2022/03/01 04:48:37;;;;;;;4.00;3.70;;;;;18.30;101682.00;;;;2054719;28;20226;-51
2022/03/01 04:49:38;;;;;;;3.40;3.10;;;;;18.40;101681.00;;;;2063072;28;20218;-52
2022/03/01 04:50:38;;;;;;;3.97;3.67;;;;;18.30;101677.00;;;;2062467;28;20218;-51
2022/03/01 04:51:39;;;;;;;3.47;3.17;;;;;18.30;101665.00;;;;2062203;28;20298;-51
2022/03/01 04:52:39;;;;;;;3.60;3.30;;;;;18.30;101681.00;;;;2062013;28;20297;-51
2022/03/01 04:53:39;;;;;;;3.97;3.67;;;;;18.30;101682.00;;;;2062976;28;20600;-51
2022/03/01 04:54:40;;;;;;;3.53;3.23;;;;;18.30;101676.00;;;;2062825;28;20269;-51
2022/03/01 04:55:40;;;;;;;3.30;3.07;;;;;18.30;101678.00;;;;2062982;28;20219;-51
2022/03/01 04:56:40;;;;;;;3.30;3.10;;;;;18.30;101672.00;;;;2061763;28;20258;-50
2022/03/01 04:57:42;;;;;;;3.60;3.30;;;;;18.30;101678.00;;;;2061578;28;20317;-51
2022/03/01 04:58:43;;;;;;;3.25;3.05;;;;;18.30;101672.00;;;;2056218;28;20302;-51
2022/03/01 04:59:43;;;;;;;3.43;3.23;;;;;18.30;101676.00;;;;2054272;28;20207;-51
2022/03/01 05:00:44;;;;;;;3.77;3.47;;;;;18.30;101680.00;;;;2053776;28;20451;-51